Time;durP1;ratioP1;P1;durP2;ratioP2;P2;SDS_P1;SDS_P2;PMS_P1;PMS_P2;Temp;Humidity;BMP_temperature;BMP_pressure;BME280_temperature;BME280_humidity;BME280_pressure;Samples;Min_cycle;Max_cycle;Signal;HPM_P1;HPM_P2
2021/05/28 00:02:23;;;;;;;4.43;3.40;;;;;;;;;;5034385;28;20040;-67
2021/05/28 00:04:49;;;;;;;3.70;2.88;;;;;;;;;;5050928;28;20045;-68
2021/05/28 00:07:15;;;;;;;3.40;3.10;;;;;;;;;;5054879;28;20094;-68
2021/05/28 00:09:41;;;;;;;3.90;2.80;;;;;;;;;;5054833;28;20033;-67
2021/05/28 00:12:07;;;;;;;3.85;2.38;;;;;;;;;;5053914;28;20033;-68
2021/05/28 00:14:33;;;;;;;3.15;2.83;;;;;;;;;;5054493;28;20029;-69
2021/05/28 00:16:59;;;;;;;3.58;2.45;;;;;;;;;;5054574;28;20367;-68
2021/05/28 00:19:25;;;;;;;4.38;2.58;;;;;;;;;;5054741;28;20067;-68
2021/05/28 00:21:51;;;;;;;2.70;2.30;;;;;;;;;;5036680;28;20025;-69
2021/05/28 00:24:19;;;;;;;3.15;2.20;;;;;;;;;;5036392;28;20042;-68
2021/05/28 00:26:45;;;;;;;7.32;2.33;;;;;;;;;;5054444;28;20033;-68
2021/05/28 04:05:54;;;;;;;5.65;3.00;;;;;;;;;;5031941;28;20046;-71
2021/05/28 04:08:20;;;;;;;4.88;2.90;;;;;;;;;;5009183;28;20033;-71
2021/05/28 04:10:47;;;;;;;5.68;3.00;;;;;;;;;;5025784;28;20037;-70
2021/05/28 04:13:13;;;;;;;4.72;3.25;;;;;;;;;;5017082;28;20028;-72
2021/05/28 04:15:39;;;;;;;5.82;3.30;;;;;;;;;;5011402;28;20022;-70
2021/05/28 04:18:08;;;;;;;4.35;3.20;;;;;;;;;;5030411;28;20441;-71
2021/05/28 04:20:36;;;;;;;4.85;3.20;;;;;;;;;;5006184;28;20030;-73
2021/05/28 04:23:02;;;;;;;3.80;2.72;;;;;;;;;;5005682;28;20018;-70
2021/05/28 04:25:28;;;;;;;5.47;3.45;;;;;;;;;;5013495;28;20038;-70
2021/05/28 04:27:54;;;;;;;5.32;3.28;;;;;;;;;;5033730;28;20030;-66
2021/05/28 04:30:24;;;;;;;10.10;3.72;;;;;;;;;;5005459;28;20160;-66
2021/05/28 04:32:55;;;;;;;4.00;3.13;;;;;;;;;;5022921;28;20028;-66
2021/05/28 04:35:25;;;;;;;3.90;2.90;;;;;;;;;;5014853;28;20026;-66
2021/05/28 04:37:53;;;;;;;4.80;3.10;;;;;;;;;;5011531;28;20040;-66
2021/05/28 04:40:19;;;;;;;5.07;3.50;;;;;;;;;;5014440;28;20037;-65
2021/05/28 04:42:46;;;;;;;5.57;3.10;;;;;;;;;;5032230;28;20041;-65
2021/05/28 04:45:12;;;;;;;3.40;3.00;;;;;;;;;;5015893;28;20045;-65
2021/05/28 04:47:38;;;;;;;4.95;3.45;;;;;;;;;;5034503;28;20463;-66
2021/05/28 04:50:04;;;;;;;4.80;3.50;;;;;;;;;;5009671;28;20474;-65
2021/05/28 04:52:30;;;;;;;3.78;2.95;;;;;;;;;;5015912;28;20033;-66
2021/05/28 04:54:56;;;;;;;4.97;3.38;;;;;;;;;;5027977;28;20099;-67
2021/05/28 04:57:22;;;;;;;7.03;3.50;;;;;;;;;;4998536;28;20029;-65
2021/05/28 04:59:48;;;;;;;4.57;3.38;;;;;;;;;;5013969;28;20068;-65
2021/05/28 05:02:14;;;;;;;4.95;3.70;;;;;;;;;;5014132;28;20030;-65
2021/05/28 05:04:40;;;;;;;6.28;3.80;;;;;;;;;;5023137;28;20119;-65
2021/05/28 05:07:06;;;;;;;5.40;3.92;;;;;;;;;;5016291;28;20465;-65
2021/05/28 05:09:34;;;;;;;6.40;4.43;;;;;;;;;;5015603;28;20029;-65
2021/05/28 05:12:00;;;;;;;5.47;3.75;;;;;;;;;;5015848;28;20021;-65
2021/05/28 05:14:26;;;;;;;6.30;4.00;;;;;;;;;;5033826;28;20076;-66
2021/05/28 05:16:53;;;;;;;5.72;3.92;;;;;;;;;;5033639;28;20029;-66
2021/05/28 05:19:19;;;;;;;9.27;4.93;;;;;;;;;;5015677;28;20025;-66
2021/05/28 05:21:45;;;;;;;8.65;4.05;;;;;;;;;;5015803;28;20044;-66
2021/05/28 05:24:14;;;;;;;5.75;4.25;;;;;;;;;;5015429;28;20030;-65
2021/05/28 05:26:40;;;;;;;8.90;4.05;;;;;;;;;;5033536;28;20065;-65
2021/05/28 05:29:09;;;;;;;7.90;4.68;;;;;;;;;;5033123;28;20084;-66
2021/05/28 05:31:35;;;;;;;7.63;4.47;;;;;;;;;;5033516;28;20055;-67
2021/05/28 05:34:01;;;;;;;10.10;5.57;;;;;;;;;;5033352;28;20037;-67
2021/05/28 05:36:27;;;;;;;7.55;5.03;;;;;;;;;;5015612;28;20382;-66
2021/05/28 05:38:53;;;;;;;7.75;4.47;;;;;;;;;;5015201;28;20394;-66
2021/05/28 05:41:19;;;;;;;5.20;3.92;;;;;;;;;;5015543;28;20033;-67
2021/05/28 05:43:45;;;;;;;5.60;3.58;;;;;;;;;;5032945;28;20045;-67
2021/05/28 05:46:12;;;;;;;4.45;3.00;;;;;;;;;;5033125;28;20369;-66
2021/05/28 05:48:38;;;;;;;3.95;3.20;;;;;;;;;;5033037;28;20492;-66
2021/05/28 05:51:07;;;;;;;3.10;2.65;;;;;;;;;;5015479;28;20030;-66
2021/05/28 05:53:33;;;;;;;3.67;2.60;;;;;;;;;;5015302;28;20029;-66
2021/05/28 05:55:59;;;;;;;3.10;2.80;;;;;;;;;;5033273;28;20465;-67
2021/05/28 05:58:25;;;;;;;7.25;3.03;;;;;;;;;;5033008;28;20461;-65
2021/05/28 06:00:54;;;;;;;4.18;2.90;;;;;;;;;;5033058;28;20037;-66
2021/05/28 06:03:20;;;;;;;3.33;3.00;;;;;;;;;;5032994;28;20385;-66
2021/05/28 06:05:46;;;;;;;5.50;3.60;;;;;;;;;;5032648;28;20053;-65
2021/05/28 06:08:12;;;;;;;4.55;3.05;;;;;;;;;;5014458;28;20053;-68
2021/05/28 06:10:38;;;;;;;4.75;3.58;;;;;;;;;;5032658;28;20057;-65
2021/05/28 06:13:05;;;;;;;5.43;2.72;;;;;;;;;;5033106;28;20098;-68
2021/05/28 06:15:32;;;;;;;4.85;3.40;;;;;;;;;;5032771;28;20087;-67
2021/05/28 06:17:58;;;;;;;5.32;3.47;;;;;;;;;;5032675;28;20068;-67
2021/05/28 06:20:24;;;;;;;3.63;3.10;;;;;;;;;;5015920;28;20030;-66
2021/05/28 06:22:50;;;;;;;5.88;3.80;;;;;;;;;;5030654;28;20392;-66
2021/05/28 06:25:16;;;;;;;4.60;3.80;;;;;;;;;;5047652;28;20130;-70
2021/05/28 06:27:46;;;;;;;4.72;3.85;;;;;;;;;;5053650;28;20025;-68
2021/05/28 06:30:13;;;;;;;6.97;4.28;;;;;;;;;;5035186;28;20028;-67
2021/05/28 06:32:39;;;;;;;6.80;4.18;;;;;;;;;;5036232;28;20028;-71
2021/05/28 06:35:05;;;;;;;7.07;4.88;;;;;;;;;;5037988;28;20153;-71
2021/05/28 06:37:34;;;;;;;7.88;4.78;;;;;;;;;;5052793;28;20052;-71
2021/05/28 06:40:00;;;;;;;6.30;4.50;;;;;;;;;;5036283;28;20035;-69
2021/05/28 06:42:30;;;;;;;6.65;4.57;;;;;;;;;;5036499;28;20032;-66
2021/05/28 06:44:56;;;;;;;5.47;4.47;;;;;;;;;;5053061;28;20025;-65
2021/05/28 06:47:24;;;;;;;6.15;4.68;;;;;;;;;;5034271;28;20041;-66
2021/05/28 06:49:50;;;;;;;5.38;4.47;;;;;;;;;;5051959;28;20029;-66
2021/05/28 06:52:16;;;;;;;6.18;4.60;;;;;;;;;;5052323;28;20033;-66
2021/05/28 06:54:42;;;;;;;6.38;4.53;;;;;;;;;;5052247;28;20029;-65
2021/05/28 06:57:08;;;;;;;5.80;4.80;;;;;;;;;;5051973;28;20025;-66
2021/05/28 06:59:34;;;;;;;5.97;4.20;;;;;;;;;;5046541;28;20466;-66
2021/05/28 07:02:00;;;;;;;7.22;5.47;;;;;;;;;;5050725;28;20033;-65
2021/05/28 07:04:26;;;;;;;7.35;4.82;;;;;;;;;;5044002;28;20064;-64
2021/05/28 07:06:52;;;;;;;4.97;4.47;;;;;;;;;;5030972;28;20030;-66
2021/05/28 07:09:18;;;;;;;6.22;5.00;;;;;;;;;;4995171;28;20025;-65
2021/05/28 07:11:45;;;;;;;6.95;5.20;;;;;;;;;;4994419;28;20446;-66
2021/05/28 07:14:11;;;;;;;10.82;5.93;;;;;;;;;;5012960;28;20030;-66
2021/05/28 07:16:36;;;;;;;7.57;6.10;;;;;;;;;;5014123;28;20026;-66
2021/05/28 07:19:04;;;;;;;8.82;6.53;;;;;;;;;;5014293;28;20052;-66
2021/05/28 07:21:30;;;;;;;10.85;7.30;;;;;;;;;;5017108;28;20039;-66
2021/05/28 07:23:56;;;;;;;9.32;6.75;;;;;;;;;;5017542;28;20036;-66
2021/05/28 07:26:22;;;;;;;11.43;7.40;;;;;;;;;;5018162;28;20026;-66
2021/05/28 07:28:48;;;;;;;9.77;7.20;;;;;;;;;;5018017;28;20021;-64
2021/05/28 07:31:14;;;;;;;10.85;7.90;;;;;;;;;;5035334;28;20436;-66
2021/05/28 07:33:40;;;;;;;11.48;8.00;;;;;;;;;;5017711;28;20458;-67
2021/05/28 07:36:10;;;;;;;7.50;6.40;;;;;;;;;;5017739;28;20489;-65
2021/05/28 07:38:36;;;;;;;11.65;7.15;;;;;;;;;;5017737;28;20389;-65
2021/05/28 07:41:02;;;;;;;10.50;7.47;;;;;;;;;;5017597;28;20025;-67
2021/05/28 07:43:28;;;;;;;9.07;7.20;;;;;;;;;;5017749;28;20026;-66
2021/05/28 07:45:54;;;;;;;8.00;7.15;;;;;;;;;;5035396;28;20051;-67
2021/05/28 07:48:21;;;;;;;7.82;6.25;;;;;;;;;;5035277;28;20501;-66
2021/05/28 07:50:48;;;;;;;9.43;7.55;;;;;;;;;;5016558;28;20034;-66
2021/05/28 07:53:19;;;;;;;9.27;7.10;;;;;;;;;;5016668;28;20033;-67
2021/05/28 07:55:45;;;;;;;9.73;6.88;;;;;;;;;;5025791;28;20033;-66
2021/05/28 07:58:11;;;;;;;10.13;7.30;;;;;;;;;;5015501;28;20034;-65
2021/05/28 08:00:37;;;;;;;9.95;7.15;;;;;;;;;;4997318;28;20439;-66
2021/05/28 08:03:04;;;;;;;7.28;5.75;;;;;;;;;;5023131;28;20428;-65
2021/05/28 08:05:30;;;;;;;6.53;5.80;;;;;;;;;;5051232;28;20055;-65
2021/05/28 08:07:56;;;;;;;9.80;6.47;;;;;;;;;;5037019;28;20033;-67
2021/05/28 08:10:26;;;;;;;8.00;5.70;;;;;;;;;;5036670;28;20043;-67
2021/05/28 08:12:52;;;;;;;7.70;6.47;;;;;;;;;;5036709;28;20374;-67
2021/05/28 08:15:19;;;;;;;11.02;6.32;;;;;;;;;;5054321;28;20043;-66
2021/05/28 08:17:45;;;;;;;6.38;5.30;;;;;;;;;;5036838;28;20370;-66
2021/05/28 08:20:12;;;;;;;7.60;5.50;;;;;;;;;;5054270;28;20056;-65
2021/05/28 08:22:38;;;;;;;7.85;5.88;;;;;;;;;;5054311;28;20104;-67
2021/05/28 08:25:04;;;;;;;12.63;6.70;;;;;;;;;;5054145;28;20397;-66
2021/05/28 08:27:30;;;;;;;6.93;5.47;;;;;;;;;;5036420;28;20064;-67
2021/05/28 08:29:56;;;;;;;7.13;5.65;;;;;;;;;;5054020;28;20039;-67
2021/05/28 08:32:22;;;;;;;8.70;5.85;;;;;;;;;;5035559;28;20037;-66
2021/05/28 08:34:48;;;;;;;7.22;5.70;;;;;;;;;;5036616;28;20032;-68
2021/05/28 08:37:14;;;;;;;7.75;6.32;;;;;;;;;;5054502;28;20033;-66
2021/05/28 08:39:40;;;;;;;9.43;6.65;;;;;;;;;;5036093;28;20020;-67
2021/05/28 08:42:06;;;;;;;7.82;6.70;;;;;;;;;;5054091;28;20465;-66
2021/05/28 08:44:33;;;;;;;7.53;6.25;;;;;;;;;;5035969;28;20477;-69
2021/05/28 08:46:59;;;;;;;7.55;6.80;;;;;;;;;;5035988;28;20037;-67
2021/05/28 08:49:25;;;;;;;7.28;6.13;;;;;;;;;;5036063;28;20040;-67
2021/05/28 08:51:51;;;;;;;9.00;7.03;;;;;;;;;;5053824;28;20048;-67
2021/05/28 08:54:18;;;;;;;7.63;6.40;;;;;;;;;;5044379;28;20810;-69
2021/05/28 08:56:46;;;;;;;9.27;7.35;;;;;;;;;;5042486;28;20064;-68
2021/05/28 08:59:12;;;;;;;9.50;7.03;;;;;;;;;;5043626;28;20029;-68
2021/05/28 09:01:38;;;;;;;8.13;6.65;;;;;;;;;;5043816;28;20108;-66
2021/05/28 09:04:05;;;;;;;8.00;6.40;;;;;;;;;;5044687;28;20123;-67
2021/05/28 09:06:39;;;;;;;8.25;6.50;;;;;;;;;;5034157;28;20112;-66
2021/05/28 09:09:16;;;;;;;10.15;6.70;;;;;;;;;;5027567;28;20082;-66
2021/05/28 09:11:53;;;;;;;11.00;7.28;;;;;;;;;;5028943;28;20032;-64
2021/05/28 09:14:33;;;;;;;8.63;6.53;;;;;;;;;;5036112;28;20029;-68
2021/05/28 09:17:00;;;;;;;10.68;5.82;;;;;;;;;;5051803;28;20025;-68
2021/05/28 09:19:26;;;;;;;7.28;5.70;;;;;;;;;;5052232;28;20412;-67
2021/05/28 09:22:00;;;;;;;7.32;5.82;;;;;;;;;;5040481;28;20175;-68
2021/05/28 09:24:27;;;;;;;8.88;5.97;;;;;;;;;;5035784;28;20503;-69
2021/05/28 09:26:53;;;;;;;8.18;5.68;;;;;;;;;;5042579;28;20381;-68
2021/05/28 09:29:19;;;;;;;7.30;6.40;;;;;;;;;;5051956;28;20092;-67
2021/05/28 09:31:49;;;;;;;9.93;5.72;;;;;;;;;;5035106;28;20060;-65
2021/05/28 09:34:15;;;;;;;8.88;6.63;;;;;;;;;;5033649;28;20029;-66
2021/05/28 09:36:41;;;;;;;8.02;7.18;;;;;;;;;;5050641;28;20031;-66
2021/05/28 09:39:16;;;;;;;8.82;7.00;;;;;;;;;;5052490;28;20025;-67
2021/05/28 09:41:51;;;;;;;9.45;6.75;;;;;;;;;;5053351;28;20029;-67
2021/05/28 09:44:21;;;;;;;9.95;7.90;;;;;;;;;;5035121;28;20044;-68
2021/05/28 09:47:26;;;;;;;9.68;8.07;;;;;;;;;;5053163;28;20066;-68
2021/05/28 09:49:54;;;;;;;11.73;7.68;;;;;;;;;;4953029;29;20113;-68
2021/05/28 09:52:24;;;;;;;10.55;8.05;;;;;;;;;;4953528;29;20368;-69
2021/05/28 09:54:57;;;;;;;10.20;7.87;;;;;;;;;;5004130;28;20037;-66
2021/05/28 09:57:31;;;;;;;9.35;7.40;;;;;;;;;;5035414;28;20480;-67
2021/05/28 09:59:57;;;;;;;11.57;7.07;;;;;;;;;;5027068;28;20049;-67
2021/05/28 10:02:31;;;;;;;11.50;7.32;;;;;;;;;;5035165;28;20385;-68
2021/05/28 10:04:59;;;;;;;10.15;7.30;;;;;;;;;;5019965;28;20045;-67
2021/05/28 10:07:25;;;;;;;8.82;7.05;;;;;;;;;;5019375;28;20029;-69
2021/05/28 10:09:52;;;;;;;9.95;7.47;;;;;;;;;;5027198;28;20041;-66
2021/05/28 10:12:19;;;;;;;10.90;8.10;;;;;;;;;;5044048;28;20032;-68
2021/05/28 10:14:45;;;;;;;10.63;8.32;;;;;;;;;;5034031;28;20037;-68
2021/05/28 10:17:16;;;;;;;11.43;8.68;;;;;;;;;;5033730;28;20036;-68
2021/05/28 10:19:48;;;;;;;10.93;8.25;;;;;;;;;;5052245;28;20377;-68
2021/05/28 10:22:17;;;;;;;8.83;6.97;;;;;;;;;;5034276;28;20091;-67
2021/05/28 10:24:43;;;;;;;11.50;7.95;;;;;;;;;;5052409;28;20643;-68
2021/05/28 10:27:09;;;;;;;10.77;7.97;;;;;;;;;;5034174;28;20091;-66
2021/05/28 10:29:39;;;;;;;12.27;8.60;;;;;;;;;;5033634;28;20029;-68
2021/05/28 10:32:15;;;;;;;10.20;8.57;;;;;;;;;;5033664;28;20074;-68
2021/05/28 10:35:01;;;;;;;10.90;7.90;;;;;;;;;;5026505;28;20384;-68
2021/05/28 10:37:28;;;;;;;11.30;8.73;;;;;;;;;;5035068;28;20147;-67
2021/05/28 10:39:59;;;;;;;11.23;7.97;;;;;;;;;;5026839;28;20033;-68
2021/05/28 10:42:25;;;;;;;11.20;8.85;;;;;;;;;;5031641;28;20033;-67
2021/05/28 10:44:57;;;;;;;13.73;8.27;;;;;;;;;;5032648;28;20103;-68
2021/05/28 10:47:23;;;;;;;11.65;8.85;;;;;;;;;;5032073;28;20485;-66
2021/05/28 10:50:03;;;;;;;10.73;8.80;;;;;;;;;;5032169;28;20434;-68
2021/05/28 10:52:40;;;;;;;12.90;9.73;;;;;;;;;;5034001;28;20033;-68
2021/05/28 10:55:09;;;;;;;11.23;8.88;;;;;;;;;;5034808;28;20127;-66
2021/05/28 10:58:08;;;;;;;13.25;9.60;;;;;;;;;;5055814;28;20436;-71
2021/05/28 11:00:42;;;;;;;9.07;8.07;;;;;;;;;;5029756;28;20029;-70
2021/05/28 11:03:15;;;;;;;10.57;9.07;;;;;;;;;;5037348;28;20020;-68
2021/05/28 11:06:01;;;;;;;11.00;8.60;;;;;;;;;;5036837;28;20040;-68
2021/05/28 11:08:48;;;;;;;11.05;8.38;;;;;;;;;;5037546;28;20433;-67
2021/05/28 11:11:41;;;;;;;11.77;8.02;;;;;;;;;;5037194;28;20025;-70
2021/05/28 11:14:08;;;;;;;10.20;8.07;;;;;;;;;;5028555;28;20132;-69
2021/05/28 11:16:53;;;;;;;10.57;7.75;;;;;;;;;;5026883;28;20033;-69
2021/05/28 11:19:23;;;;;;;10.52;8.30;;;;;;;;;;5036494;28;20358;-69
2021/05/28 11:21:57;;;;;;;12.55;8.25;;;;;;;;;;5036767;28;20085;-69
2021/05/28 11:24:41;;;;;;;10.75;8.23;;;;;;;;;;5055260;28;20036;-67
2021/05/28 11:27:11;;;;;;;11.75;8.32;;;;;;;;;;5055300;28;20060;-70
2021/05/28 11:29:45;;;;;;;10.25;8.75;;;;;;;;;;5055690;28;20040;-70
2021/05/28 11:32:36;;;;;;;11.82;7.43;;;;;;;;;;5036789;28;20041;-69
2021/05/28 11:35:28;;;;;;;13.63;9.50;;;;;;;;;;5036480;28;20124;-66
2021/05/28 11:37:59;;;;;;;9.88;8.88;;;;;;;;;;5034233;28;20512;-68
2021/05/28 11:40:31;;;;;;;11.38;8.77;;;;;;;;;;5037195;28;20028;-69
2021/05/28 11:43:03;;;;;;;11.18;9.38;;;;;;;;;;5054659;28;20377;-70
2021/05/28 11:45:29;;;;;;;10.38;8.43;;;;;;;;;;5037128;28;20067;-69
2021/05/28 11:47:55;;;;;;;10.05;8.90;;;;;;;;;;5054947;28;20477;-66
2021/05/28 11:50:22;;;;;;;11.43;8.50;;;;;;;;;;5036806;28;20055;-68
2021/05/28 11:53:01;;;;;;;10.07;8.27;;;;;;;;;;5036943;28;20486;-67
2021/05/28 11:55:28;;;;;;;13.50;9.27;;;;;;;;;;5054835;28;20031;-66
2021/05/28 11:57:59;;;;;;;9.98;8.60;;;;;;;;;;5036970;28;20082;-71
2021/05/28 12:00:26;;;;;;;10.52;8.13;;;;;;;;;;5036911;28;20032;-68
2021/05/28 12:02:56;;;;;;;11.55;9.13;;;;;;;;;;5036590;28;20076;-66
2021/05/28 12:05:29;;;;;;;10.65;8.15;;;;;;;;;;5039086;28;20060;-71
2021/05/28 12:08:00;;;;;;;9.68;8.35;;;;;;;;;;5015778;28;20041;-70
2021/05/28 12:10:27;;;;;;;9.23;7.90;;;;;;;;;;5017031;28;20179;-66
2021/05/28 12:12:53;;;;;;;9.50;7.68;;;;;;;;;;5034385;28;20390;-70
2021/05/28 12:15:20;;;;;;;9.30;7.47;;;;;;;;;;5034472;28;20083;-68
2021/05/28 12:17:46;;;;;;;9.48;7.45;;;;;;;;;;5034471;28;20382;-67
2021/05/28 12:20:32;;;;;;;10.35;7.55;;;;;;;;;;5034545;28;20131;-66
2021/05/28 12:23:12;;;;;;;8.52;6.63;;;;;;;;;;5034042;28;20044;-69
2021/05/28 12:25:40;;;;;;;9.40;7.57;;;;;;;;;;5034212;28;20033;-67
2021/05/28 12:28:11;;;;;;;8.75;7.28;;;;;;;;;;5016633;28;20280;-65
2021/05/28 12:30:37;;;;;;;9.63;7.70;;;;;;;;;;5016814;28;20076;-68
2021/05/28 12:33:03;;;;;;;7.60;6.45;;;;;;;;;;5034439;28;20484;-66
2021/05/28 12:35:29;;;;;;;7.25;6.40;;;;;;;;;;5034246;28;20033;-65
2021/05/28 12:38:09;;;;;;;7.50;6.70;;;;;;;;;;5034303;28;20030;-69
2021/05/28 12:40:35;;;;;;;11.10;6.80;;;;;;;;;;5034395;28;20033;-69
2021/05/28 12:43:03;;;;;;;7.95;6.75;;;;;;;;;;5024544;28;20033;-65
2021/05/28 12:45:37;;;;;;;7.38;6.07;;;;;;;;;;5014312;28;20077;-65
2021/05/28 12:48:10;;;;;;;9.75;6.72;;;;;;;;;;5018678;28;20088;-66
2021/05/28 12:50:36;;;;;;;13.20;7.07;;;;;;;;;;4998598;28;20026;-68
2021/05/28 12:53:12;;;;;;;6.18;5.57;;;;;;;;;;5013758;28;20048;-69
2021/05/28 12:55:39;;;;;;;7.43;6.05;;;;;;;;;;4980614;28;20038;-68
2021/05/28 12:58:05;;;;;;;7.72;6.70;;;;;;;;;;5015836;28;20051;-69
2021/05/28 13:00:32;;;;;;;9.23;6.35;;;;;;;;;;5001798;28;20425;-68
2021/05/28 13:02:58;;;;;;;7.15;5.82;;;;;;;;;;4996242;28;20129;-71
2021/05/28 13:05:32;;;;;;;7.32;6.57;;;;;;;;;;5029087;28;20045;-66
2021/05/28 13:07:58;;;;;;;7.22;6.50;;;;;;;;;;5023925;28;20029;-70
2021/05/28 13:10:25;;;;;;;6.20;5.60;;;;;;;;;;5053132;28;20036;-65
2021/05/28 13:12:51;;;;;;;6.25;5.05;;;;;;;;;;5034979;28;20029;-65
2021/05/28 13:15:26;;;;;;;6.13;5.45;;;;;;;;;;5053090;28;20059;-68
2021/05/28 13:17:53;;;;;;;6.45;5.13;;;;;;;;;;5034841;28;20037;-65
2021/05/28 13:20:21;;;;;;;6.32;4.90;;;;;;;;;;5053119;28;20028;-67
2021/05/28 13:22:48;;;;;;;6.40;4.18;;;;;;;;;;5035097;28;20024;-65
2021/05/28 13:25:40;;;;;;;5.45;4.40;;;;;;;;;;5035336;28;20040;-69
2021/05/28 13:28:10;;;;;;;7.80;4.47;;;;;;;;;;5035431;28;20033;-66
2021/05/28 13:30:36;;;;;;;6.47;4.28;;;;;;;;;;5034899;28;20032;-67
2021/05/28 13:33:16;;;;;;;6.90;4.30;;;;;;;;;;5035051;28;20033;-67
2021/05/28 13:35:42;;;;;;;5.20;4.22;;;;;;;;;;5034956;28;20223;-69
2021/05/28 13:38:08;;;;;;;4.22;3.75;;;;;;;;;;5052949;28;20025;-65
2021/05/28 13:40:35;;;;;;;7.78;4.15;;;;;;;;;;5052966;28;20036;-65
2021/05/28 13:43:01;;;;;;;6.53;4.22;;;;;;;;;;5052568;28;20029;-67
2021/05/28 13:45:27;;;;;;;4.60;3.88;;;;;;;;;;5034630;28;20041;-67
2021/05/28 13:47:53;;;;;;;5.50;4.30;;;;;;;;;;5052564;28;20087;-66
2021/05/28 13:50:19;;;;;;;5.75;4.18;;;;;;;;;;5035289;28;20129;-68
2021/05/28 13:52:45;;;;;;;5.15;4.20;;;;;;;;;;5034472;28;20035;-65
2021/05/28 13:55:12;;;;;;;4.25;3.85;;;;;;;;;;5034706;28;20116;-67
2021/05/28 13:57:38;;;;;;;5.03;4.15;;;;;;;;;;5052541;28;20033;-67
2021/05/28 14:00:07;;;;;;;6.97;4.00;;;;;;;;;;5039528;28;20030;-69
2021/05/28 14:02:33;;;;;;;4.40;3.45;;;;;;;;;;5043729;28;20465;-70
2021/05/28 14:04:59;;;;;;;6.07;4.10;;;;;;;;;;5039980;28;20136;-66
2021/05/28 14:07:25;;;;;;;7.00;3.65;;;;;;;;;;5032506;28;20104;-68
2021/05/28 14:09:51;;;;;;;4.20;3.80;;;;;;;;;;5032652;28;20087;-66
2021/05/28 14:12:17;;;;;;;4.35;3.30;;;;;;;;;;5014942;28;20520;-67
2021/05/28 14:14:43;;;;;;;5.75;3.75;;;;;;;;;;5028470;28;20057;-67
2021/05/28 14:17:12;;;;;;;6.80;4.43;;;;;;;;;;4995058;28;20041;-66
2021/05/28 14:19:38;;;;;;;4.28;3.70;;;;;;;;;;5012695;28;20034;-68
2021/05/28 14:22:04;;;;;;;4.97;4.07;;;;;;;;;;4997643;28;20042;-67
2021/05/28 14:24:30;;;;;;;5.25;4.60;;;;;;;;;;5020131;28;20033;-68
2021/05/28 14:26:56;;;;;;;4.95;4.43;;;;;;;;;;5020110;28;20056;-71
2021/05/28 14:29:22;;;;;;;4.50;4.07;;;;;;;;;;5021991;28;20030;-67
2021/05/28 14:31:48;;;;;;;5.75;3.92;;;;;;;;;;5023360;28;20121;-66
2021/05/28 14:34:14;;;;;;;5.15;4.25;;;;;;;;;;5005002;28;20029;-70
2021/05/28 14:36:44;;;;;;;5.88;4.13;;;;;;;;;;5024698;28;20064;-68
2021/05/28 14:39:11;;;;;;;6.50;5.07;;;;;;;;;;5004703;28;20454;-68
2021/05/28 14:41:38;;;;;;;8.13;4.15;;;;;;;;;;5021407;28;20033;-67
2021/05/28 14:44:04;;;;;;;5.88;3.80;;;;;;;;;;5021115;28;20025;-66
2021/05/28 14:46:31;;;;;;;7.38;5.47;;;;;;;;;;5004762;28;20481;-70
2021/05/28 14:48:57;;;;;;;37.97;22.95;;;;;;;;;;5023948;28;20080;-64
2021/05/28 14:51:23;;;;;;;24.58;14.02;;;;;;;;;;5032092;28;20470;-67
2021/05/28 14:53:51;;;;;;;20.85;13.98;;;;;;;;;;5024347;28;20053;-68
2021/05/28 14:56:17;;;;;;;27.75;17.08;;;;;;;;;;5027994;28;20537;-67
2021/05/28 14:58:43;;;;;;;35.55;21.75;;;;;;;;;;5032233;28;20053;-67
2021/05/28 15:01:11;;;;;;;34.33;19.85;;;;;;;;;;5014214;28;20036;-68
2021/05/28 15:03:43;;;;;;;11.63;7.80;;;;;;;;;;5013035;28;20072;-67
2021/05/28 15:06:11;;;;;;;5.70;4.70;;;;;;;;;;5034063;28;20037;-65
2021/05/28 15:08:37;;;;;;;7.20;4.25;;;;;;;;;;5051891;28;20466;-68
2021/05/28 15:11:04;;;;;;;5.25;4.30;;;;;;;;;;5033929;28;20037;-65
2021/05/28 15:13:31;;;;;;;7.63;6.10;;;;;;;;;;5051699;28;20369;-66
2021/05/28 15:15:57;;;;;;;8.18;4.30;;;;;;;;;;5051692;28;20029;-67
2021/05/28 15:18:24;;;;;;;6.43;4.80;;;;;;;;;;5051603;28;20033;-66
2021/05/28 15:20:50;;;;;;;6.60;4.78;;;;;;;;;;5032798;28;20033;-66
2021/05/28 15:23:17;;;;;;;7.22;5.05;;;;;;;;;;5051809;28;20037;-66
2021/05/28 15:25:43;;;;;;;5.00;4.40;;;;;;;;;;5051757;28;20036;-67
2021/05/28 16:38:18;;;;;;;8.48;5.22;;;;;;;;;;5149263;22;20509;-67
2021/05/28 16:40:45;;;;;;;6.78;5.30;;;;;;;;;;5026003;28;20025;-69
2021/05/28 16:43:12;;;;;;;7.63;5.07;;;;;;;;;;5018316;28;20034;-70
2021/05/28 16:45:38;;;;;;;10.25;5.68;;;;;;;;;;5014078;28;20449;-69
2021/05/28 16:48:05;;;;;;;7.38;6.18;;;;;;;;;;5014141;28;20592;-69
2021/05/28 16:53:15;;;;;;;8.98;6.13;;;;;;;;;;5013457;28;20116;-70
2021/05/28 16:55:41;;;;;;;9.93;7.38;;;;;;;;;;5014154;28;20108;-65
2021/05/28 16:58:07;;;;;;;10.95;8.00;;;;;;;;;;5014105;28;20037;-71
2021/05/28 17:00:33;;;;;;;14.27;7.47;;;;;;;;;;5013927;28;20092;-69
2021/05/28 17:03:01;;;;;;;10.25;7.15;;;;;;;;;;5013912;28;20466;-73
2021/05/28 17:05:31;;;;;;;11.68;7.13;;;;;;;;;;5013969;28;20037;-69
2021/05/28 17:07:56;;;;;;;9.75;7.18;;;;;;;;;;5014043;28;20062;-68
2021/05/28 17:10:24;;;;;;;9.25;6.10;;;;;;;;;;5025139;28;20148;-73
2021/05/28 17:12:50;;;;;;;8.43;6.05;;;;;;;;;;5033388;28;20025;-71
2021/05/28 17:15:16;;;;;;;12.88;5.85;;;;;;;;;;5033718;28;20084;-70
2021/05/28 17:17:42;;;;;;;7.30;5.70;;;;;;;;;;5033793;28;20029;-71
2021/05/28 17:20:08;;;;;;;9.20;5.95;;;;;;;;;;5033489;28;20044;-69
2021/05/28 17:22:34;;;;;;;7.03;5.25;;;;;;;;;;5033586;28;20057;-73
2021/05/28 17:25:00;;;;;;;7.03;5.45;;;;;;;;;;5033263;28;20386;-66
2021/05/28 17:27:26;;;;;;;7.47;6.13;;;;;;;;;;5033603;28;20029;-66
2021/05/28 17:29:52;;;;;;;7.43;5.95;;;;;;;;;;5033342;28;20029;-71
2021/05/28 17:32:18;;;;;;;7.63;5.57;;;;;;;;;;5033515;28;20351;-71
2021/05/28 17:34:45;;;;;;;8.15;5.70;;;;;;;;;;5033397;28;20044;-71
2021/05/28 17:37:11;;;;;;;7.25;5.97;;;;;;;;;;5033088;28;20051;-70
2021/05/28 17:39:37;;;;;;;6.63;5.00;;;;;;;;;;5033203;28;20071;-68
2021/05/28 17:42:04;;;;;;;8.85;5.45;;;;;;;;;;5033129;28;20085;-71
2021/05/28 17:44:29;;;;;;;6.90;5.35;;;;;;;;;;5033142;28;20046;-68
2021/05/28 17:46:56;;;;;;;7.03;5.40;;;;;;;;;;5033184;28;20037;-69
2021/05/28 17:49:22;;;;;;;7.32;5.25;;;;;;;;;;5033184;28;20032;-68
2021/05/28 17:51:48;;;;;;;6.60;5.55;;;;;;;;;;5032961;28;20033;-67
2021/05/28 17:54:14;;;;;;;6.70;5.20;;;;;;;;;;5032925;28;20378;-71
2021/05/28 17:56:40;;;;;;;5.45;4.95;;;;;;;;;;5028835;28;20025;-72
2021/05/28 17:59:06;;;;;;;6.18;5.00;;;;;;;;;;5029144;28;20445;-68
2021/05/28 18:01:35;;;;;;;6.95;5.38;;;;;;;;;;5032425;28;20033;-67
2021/05/28 18:04:01;;;;;;;6.82;5.20;;;;;;;;;;5031689;28;20030;-72
2021/05/28 18:06:28;;;;;;;5.90;5.28;;;;;;;;;;5031640;28;20018;-71
2021/05/28 18:08:55;;;;;;;6.20;5.35;;;;;;;;;;5032066;28;20051;-72
2021/05/28 18:11:20;;;;;;;8.30;5.28;;;;;;;;;;5032091;28;20029;-68
2021/05/28 18:13:46;;;;;;;7.05;5.45;;;;;;;;;;5031954;28;20373;-72
2021/05/28 18:16:13;;;;;;;8.93;5.45;;;;;;;;;;5032016;28;20025;-72
2021/05/28 18:18:40;;;;;;;9.93;5.78;;;;;;;;;;5032027;28;20028;-69
2021/05/28 18:21:06;;;;;;;7.55;5.70;;;;;;;;;;5031544;28;20025;-72
2021/05/28 18:23:32;;;;;;;8.35;6.40;;;;;;;;;;5030860;28;20033;-69
2021/05/28 18:25:58;;;;;;;6.30;5.40;;;;;;;;;;5031189;28;20045;-67
2021/05/28 18:28:24;;;;;;;7.22;5.40;;;;;;;;;;5028046;28;20033;-66
2021/05/28 18:30:50;;;;;;;10.50;5.80;;;;;;;;;;5046882;28;20480;-68
2021/05/28 18:33:18;;;;;;;7.25;5.50;;;;;;;;;;5034004;28;20480;-69
2021/05/28 18:35:44;;;;;;;10.13;5.57;;;;;;;;;;5031277;28;20389;-71
2021/05/28 18:38:10;;;;;;;8.48;5.72;;;;;;;;;;5030765;28;20041;-70
2021/05/28 18:40:36;;;;;;;12.98;7.00;;;;;;;;;;5030726;28;20040;-68
2021/05/28 18:43:04;;;;;;;10.73;7.13;;;;;;;;;;5031073;28;20036;-73
2021/05/28 18:45:30;;;;;;;12.38;7.95;;;;;;;;;;5031534;28;20393;-72
2021/05/28 18:47:56;;;;;;;12.27;7.30;;;;;;;;;;5031204;28;20033;-67
2021/05/28 18:50:23;;;;;;;11.77;7.93;;;;;;;;;;5031630;28;20079;-71
2021/05/28 18:52:50;;;;;;;8.77;6.57;;;;;;;;;;5032211;28;20032;-68
2021/05/28 18:55:20;;;;;;;12.98;7.78;;;;;;;;;;5031350;28;20101;-67
2021/05/28 18:57:46;;;;;;;;;;;;;;;;;;5031818;28;20112;-67
2021/05/28 19:00:17;;;;;;;12.60;7.70;;;;;;;;;;5031279;28;19992;-71
2021/05/28 19:02:44;;;;;;;13.70;8.25;;;;;;;;;;5026888;28;20048;-71
2021/05/28 19:05:12;;;;;;;13.38;8.60;;;;;;;;;;5031254;28;20120;-69
2021/05/28 19:07:38;;;;;;;14.77;8.93;;;;;;;;;;5027135;28;20513;-68
2021/05/28 19:10:09;;;;;;;13.20;9.15;;;;;;;;;;5031098;28;20045;-71
2021/05/28 19:12:35;;;;;;;15.07;9.45;;;;;;;;;;5027211;28;20037;-70
2021/05/28 19:15:02;;;;;;;17.40;9.55;;;;;;;;;;5028715;28;20120;-70
2021/05/28 19:17:29;;;;;;;15.30;10.48;;;;;;;;;;5034162;28;20052;-70
2021/05/28 19:19:56;;;;;;;14.93;9.93;;;;;;;;;;5032081;28;20057;-68
2021/05/28 19:22:22;;;;;;;15.95;10.30;;;;;;;;;;5033690;28;20113;-71
2021/05/28 19:24:49;;;;;;;15.02;9.48;;;;;;;;;;5034562;28;20045;-67
2021/05/28 19:27:15;;;;;;;14.30;9.18;;;;;;;;;;5034530;28;20083;-68
2021/05/28 19:29:41;;;;;;;10.93;7.78;;;;;;;;;;5034126;28;20030;-66
2021/05/28 19:32:07;;;;;;;14.18;8.07;;;;;;;;;;5034802;28;20037;-67
2021/05/28 19:34:33;;;;;;;13.95;7.57;;;;;;;;;;5024591;28;20063;-67